French Village, Missouri
Current Conditions -  °F | °C
As of 10:55 PM on Saturday 20 Dec 2014 (Local Time) from KFAM Reporting Station
Overcast Overcast  
Wind Chill: 39°   Ceiling: 2000
Heat Index: 39°   Visibility: 10mi
Dew Point: 34°   Wind: 3mph
Humidity: 81%   Direction: 110°ESE
Pressure: 30.25"   Gusts: NA
Location:  37.97°N, 90.39°W
Report Text: KFAM 210455Z AUTO 11003KT 10SM OVC020 04/01 A3025 RMK AO1
Loading
Personal Weather Stations






























Interactive Weather Map New forecast layout! Learn more

10-Day Weather Forecast

Advertisements
Track Severe Weather on mobile